CheckWX is a tool to help pilots better visualize weather data.  It is not intended as a substitute for an official pre-flight weather briefing.

09:02:34 UTC

KPIE METAR
St Pete-Clearwater International Airport
Clearwater, Florida, USA
Current

10 mins ago

KPIE 220853Z AUTO 11005KT 10SM FEW018 22/20 A3011 RMK AO2 SLP196 T02170200 57005 $
Observed
Feb-22 @ 08:53 UTC
Wind
  • 110° at 5 KTS
Visibility
10 SM
Flight Rules
VFR
Cloud Levels
  • Few at 1,800' AGL
Temperature
22°C / 72°F
Dewpoint
20°C / 68°F
Humidity
88%
Altimeter
30.11" Hg
Pressure
1019.6 hPa
Previous

1 hour ago

KPIE 220753Z AUTO 09004KT 10SM CLR 22/20 A3011 RMK AO2 SLP195 T02170200
Observed
Feb-22 @ 07:53 UTC
Wind
  • 090° at 4 KTS
Visibility
10 SM
Flight Rules
VFR
Cloud Levels
  • Clear skies
Temperature
22°C / 72°F
Dewpoint
20°C / 68°F
Humidity
88%
Altimeter
30.11" Hg
Pressure
1019.5 hPa
Previous

3 hours ago

KPIE 220553Z AUTO 01003KT 10SM BKN037 BKN046 22/21 A3012 RMK AO2 SLP200 T02220206 10239 20211 50004
Observed
Feb-22 @ 05:53 UTC
Wind
  • 010° at 3 KTS
Visibility
10 SM
Flight Rules
VFR
Cloud Levels
  • Broken at 3,700' AGL
  • Broken at 4,600' AGL
Temperature
22°C / 72°F
Dewpoint
21°C / 70°F
Humidity
94%
Altimeter
30.12" Hg
Pressure
1020 hPa